sensor_id;sensor_type;location;lat;lon;timestamp;P1;durP1;ratioP1;P2;durP2;ratioP2
44130;SDS011;29792;48.726;9.248;2023-06-26T00:00:10;6.20;;;5.22;;
44130;SDS011;29792;48.726;9.248;2023-06-26T00:02:36;7.47;;;6.30;;
44130;SDS011;29792;48.726;9.248;2023-06-26T00:05:02;7.07;;;6.38;;
44130;SDS011;29792;48.726;9.248;2023-06-26T00:07:27;6.95;;;5.93;;
44130;SDS011;29792;48.726;9.248;2023-06-26T00:09:59;7.95;;;5.55;;
44130;SDS011;29792;48.726;9.248;2023-06-26T00:12:24;6.93;;;6.22;;
44130;SDS011;29792;48.726;9.248;2023-06-26T00:14:50;7.43;;;5.90;;
44130;SDS011;29792;48.726;9.248;2023-06-26T00:17:15;6.90;;;5.82;;
44130;SDS011;29792;48.726;9.248;2023-06-26T00:19:41;7.60;;;6.68;;
44130;SDS011;29792;48.726;9.248;2023-06-26T00:22:06;7.00;;;5.05;;
44130;SDS011;29792;48.726;9.248;2023-06-26T00:24:31;9.82;;;5.93;;
44130;SDS011;29792;48.726;9.248;2023-06-26T00:26:56;8.55;;;5.10;;
44130;SDS011;29792;48.726;9.248;2023-06-26T00:29:22;7.57;;;6.38;;
44130;SDS011;29792;48.726;9.248;2023-06-26T00:31:48;6.78;;;5.45;;
44130;SDS011;29792;48.726;9.248;2023-06-26T00:34:13;8.02;;;5.38;;
44130;SDS011;29792;48.726;9.248;2023-06-26T00:36:39;6.93;;;5.97;;
44130;SDS011;29792;48.726;9.248;2023-06-26T00:39:08;8.35;;;6.00;;
44130;SDS011;29792;48.726;9.248;2023-06-26T00:41:34;7.22;;;6.47;;
44130;SDS011;29792;48.726;9.248;2023-06-26T00:43:59;7.00;;;5.85;;
44130;SDS011;29792;48.726;9.248;2023-06-26T00:46:24;7.10;;;5.63;;
44130;SDS011;29792;48.726;9.248;2023-06-26T00:48:50;6.18;;;5.18;;
44130;SDS011;29792;48.726;9.248;2023-06-26T00:51:15;7.25;;;5.95;;
44130;SDS011;29792;48.726;9.248;2023-06-26T00:53:41;8.57;;;6.55;;
44130;SDS011;29792;48.726;9.248;2023-06-26T00:56:07;6.82;;;6.07;;
44130;SDS011;29792;48.726;9.248;2023-06-26T00:58:33;8.23;;;6.68;;
44130;SDS011;29792;48.726;9.248;2023-06-26T01:00:58;10.48;;;6.93;;
44130;SDS011;29792;48.726;9.248;2023-06-26T01:03:24;7.68;;;5.80;;
44130;SDS011;29792;48.726;9.248;2023-06-26T01:05:51;7.82;;;6.28;;
44130;SDS011;29792;48.726;9.248;2023-06-26T01:08:17;7.65;;;6.68;;
44130;SDS011;29792;48.726;9.248;2023-06-26T01:10:44;7.25;;;6.53;;
44130;SDS011;29792;48.726;9.248;2023-06-26T01:13:11;8.20;;;6.22;;
44130;SDS011;29792;48.726;9.248;2023-06-26T01:15:37;6.35;;;5.28;;
44130;SDS011;29792;48.726;9.248;2023-06-26T01:18:03;10.70;;;7.70;;
44130;SDS011;29792;48.726;9.248;2023-06-26T01:20:34;6.30;;;5.13;;
44130;SDS011;29792;48.726;9.248;2023-06-26T01:23:13;7.35;;;5.57;;
44130;SDS011;29792;48.726;9.248;2023-06-26T01:28:13;7.88;;;5.60;;
44130;SDS011;29792;48.726;9.248;2023-06-26T01:30:41;9.68;;;6.45;;
44130;SDS011;29792;48.726;9.248;2023-06-26T01:33:09;6.82;;;6.10;;
44130;SDS011;29792;48.726;9.248;2023-06-26T01:35:34;7.78;;;6.15;;
44130;SDS011;29792;48.726;9.248;2023-06-26T01:38:13;7.70;;;6.65;;
44130;SDS011;29792;48.726;9.248;2023-06-26T01:40:40;7.00;;;6.20;;
44130;SDS011;29792;48.726;9.248;2023-06-26T01:43:06;9.25;;;7.30;;
44130;SDS011;29792;48.726;9.248;2023-06-26T01:45:36;7.28;;;6.50;;
44130;SDS011;29792;48.726;9.248;2023-06-26T01:48:02;9.30;;;7.70;;
44130;SDS011;29792;48.726;9.248;2023-06-26T01:50:30;8.05;;;6.90;;
44130;SDS011;29792;48.726;9.248;2023-06-26T01:53:01;8.77;;;7.43;;
44130;SDS011;29792;48.726;9.248;2023-06-26T01:58:18;19.48;;;8.65;;
44130;SDS011;29792;48.726;9.248;2023-06-26T02:00:47;9.63;;;6.68;;
44130;SDS011;29792;48.726;9.248;2023-06-26T02:03:13;8.95;;;6.40;;
44130;SDS011;29792;48.726;9.248;2023-06-26T02:05:38;8.38;;;6.47;;
44130;SDS011;29792;48.726;9.248;2023-06-26T02:08:04;6.13;;;5.50;;
44130;SDS011;29792;48.726;9.248;2023-06-26T02:10:29;9.15;;;5.72;;
44130;SDS011;29792;48.726;9.248;2023-06-26T02:12:55;8.68;;;6.20;;
44130;SDS011;29792;48.726;9.248;2023-06-26T02:15:20;6.75;;;5.55;;
44130;SDS011;29792;48.726;9.248;2023-06-26T02:17:45;6.57;;;5.47;;
44130;SDS011;29792;48.726;9.248;2023-06-26T02:20:13;7.10;;;5.88;;
44130;SDS011;29792;48.726;9.248;2023-06-26T02:22:40;8.10;;;6.93;;
44130;SDS011;29792;48.726;9.248;2023-06-26T02:25:05;5.80;;;5.15;;
44130;SDS011;29792;48.726;9.248;2023-06-26T02:27:31;8.27;;;6.45;;
44130;SDS011;29792;48.726;9.248;2023-06-26T02:29:56;8.48;;;6.88;;
44130;SDS011;29792;48.726;9.248;2023-06-26T02:32:21;7.10;;;6.28;;
44130;SDS011;29792;48.726;9.248;2023-06-26T02:34:47;7.35;;;6.03;;
44130;SDS011;29792;48.726;9.248;2023-06-26T02:37:12;8.60;;;6.30;;
44130;SDS011;29792;48.726;9.248;2023-06-26T02:39:38;7.22;;;6.40;;
44130;SDS011;29792;48.726;9.248;2023-06-26T02:42:03;8.98;;;7.70;;
44130;SDS011;29792;48.726;9.248;2023-06-26T02:44:28;9.55;;;7.13;;
44130;SDS011;29792;48.726;9.248;2023-06-26T02:46:54;10.40;;;8.25;;
44130;SDS011;29792;48.726;9.248;2023-06-26T02:49:19;11.88;;;8.20;;
44130;SDS011;29792;48.726;9.248;2023-06-26T02:51:44;7.47;;;6.55;;
44130;SDS011;29792;48.726;9.248;2023-06-26T02:54:10;7.93;;;6.85;;
44130;SDS011;29792;48.726;9.248;2023-06-26T02:56:35;9.82;;;7.07;;
44130;SDS011;29792;48.726;9.248;2023-06-26T02:59:00;8.85;;;7.25;;
44130;SDS011;29792;48.726;9.248;2023-06-26T03:01:25;6.68;;;5.35;;
44130;SDS011;29792;48.726;9.248;2023-06-26T03:03:51;7.88;;;6.72;;
44130;SDS011;29792;48.726;9.248;2023-06-26T03:06:16;7.03;;;5.88;;
44130;SDS011;29792;48.726;9.248;2023-06-26T03:08:42;7.55;;;5.82;;
44130;SDS011;29792;48.726;9.248;2023-06-26T03:11:07;8.13;;;5.57;;
44130;SDS011;29792;48.726;9.248;2023-06-26T03:13:36;7.82;;;6.18;;
44130;SDS011;29792;48.726;9.248;2023-06-26T03:16:02;7.68;;;6.25;;
44130;SDS011;29792;48.726;9.248;2023-06-26T03:18:28;8.30;;;6.03;;
44130;SDS011;29792;48.726;9.248;2023-06-26T03:20:54;6.95;;;5.40;;
44130;SDS011;29792;48.726;9.248;2023-06-26T03:23:20;7.88;;;6.43;;
44130;SDS011;29792;48.726;9.248;2023-06-26T03:25:46;7.35;;;5.65;;
44130;SDS011;29792;48.726;9.248;2023-06-26T03:28:11;7.35;;;5.20;;
44130;SDS011;29792;48.726;9.248;2023-06-26T03:30:36;15.02;;;7.47;;
44130;SDS011;29792;48.726;9.248;2023-06-26T03:33:02;7.28;;;5.60;;
44130;SDS011;29792;48.726;9.248;2023-06-26T03:35:27;8.48;;;6.45;;
44130;SDS011;29792;48.726;9.248;2023-06-26T03:37:52;7.40;;;5.97;;
44130;SDS011;29792;48.726;9.248;2023-06-26T03:40:18;8.40;;;5.65;;
44130;SDS011;29792;48.726;9.248;2023-06-26T03:42:43;6.93;;;5.30;;
44130;SDS011;29792;48.726;9.248;2023-06-26T03:45:08;11.77;;;6.03;;
44130;SDS011;29792;48.726;9.248;2023-06-26T03:47:33;8.65;;;5.78;;
44130;SDS011;29792;48.726;9.248;2023-06-26T03:49:59;7.53;;;5.75;;
44130;SDS011;29792;48.726;9.248;2023-06-26T03:52:24;7.53;;;6.40;;
44130;SDS011;29792;48.726;9.248;2023-06-26T03:54:49;13.07;;;6.30;;
44130;SDS011;29792;48.726;9.248;2023-06-26T03:57:15;8.88;;;5.90;;
44130;SDS011;29792;48.726;9.248;2023-06-26T03:59:40;8.20;;;5.53;;
44130;SDS011;29792;48.726;9.248;2023-06-26T04:02:05;6.65;;;5.45;;
44130;SDS011;29792;48.726;9.248;2023-06-26T04:04:30;5.93;;;4.85;;
44130;SDS011;29792;48.726;9.248;2023-06-26T04:06:56;7.35;;;5.90;;
44130;SDS011;29792;48.726;9.248;2023-06-26T04:09:22;6.90;;;5.10;;
44130;SDS011;29792;48.726;9.248;2023-06-26T04:11:47;6.18;;;5.55;;
44130;SDS011;29792;48.726;9.248;2023-06-26T04:14:12;6.03;;;5.30;;
44130;SDS011;29792;48.726;9.248;2023-06-26T04:16:38;6.45;;;5.18;;
44130;SDS011;29792;48.726;9.248;2023-06-26T04:19:03;7.15;;;5.78;;
44130;SDS011;29792;48.726;9.248;2023-06-26T04:21:29;9.55;;;6.68;;
44130;SDS011;29792;48.726;9.248;2023-06-26T04:23:55;9.77;;;7.05;;
44130;SDS011;29792;48.726;9.248;2023-06-26T04:26:20;10.57;;;8.23;;
44130;SDS011;29792;48.726;9.248;2023-06-26T04:28:45;9.23;;;6.95;;
44130;SDS011;29792;48.726;9.248;2023-06-26T04:31:11;10.52;;;7.38;;
44130;SDS011;29792;48.726;9.248;2023-06-26T04:33:36;9.30;;;7.22;;
44130;SDS011;29792;48.726;9.248;2023-06-26T04:36:03;7.65;;;6.85;;
44130;SDS011;29792;48.726;9.248;2023-06-26T04:38:29;9.90;;;7.53;;
44130;SDS011;29792;48.726;9.248;2023-06-26T04:40:55;9.43;;;7.78;;
44130;SDS011;29792;48.726;9.248;2023-06-26T04:43:20;8.43;;;7.07;;
44130;SDS011;29792;48.726;9.248;2023-06-26T04:45:45;9.73;;;7.55;;
44130;SDS011;29792;48.726;9.248;2023-06-26T04:48:10;8.52;;;6.57;;
44130;SDS011;29792;48.726;9.248;2023-06-26T04:50:36;12.20;;;8.10;;
44130;SDS011;29792;48.726;9.248;2023-06-26T04:53:01;8.32;;;6.38;;
44130;SDS011;29792;48.726;9.248;2023-06-26T04:55:27;8.30;;;6.05;;
44130;SDS011;29792;48.726;9.248;2023-06-26T04:57:53;11.45;;;7.28;;
44130;SDS011;29792;48.726;9.248;2023-06-26T05:00:18;9.00;;;6.90;;
44130;SDS011;29792;48.726;9.248;2023-06-26T05:02:43;7.60;;;6.78;;
44130;SDS011;29792;48.726;9.248;2023-06-26T05:05:09;8.85;;;7.47;;
44130;SDS011;29792;48.726;9.248;2023-06-26T05:07:35;11.07;;;6.80;;
44130;SDS011;29792;48.726;9.248;2023-06-26T05:10:00;8.15;;;7.35;;
44130;SDS011;29792;48.726;9.248;2023-06-26T05:12:25;7.28;;;6.47;;
44130;SDS011;29792;48.726;9.248;2023-06-26T05:14:51;8.82;;;7.53;;
44130;SDS011;29792;48.726;9.248;2023-06-26T05:17:16;7.57;;;6.43;;
44130;SDS011;29792;48.726;9.248;2023-06-26T05:19:41;17.60;;;7.93;;
44130;SDS011;29792;48.726;9.248;2023-06-26T05:22:07;8.73;;;7.63;;
44130;SDS011;29792;48.726;9.248;2023-06-26T05:24:33;10.00;;;7.55;;
44130;SDS011;29792;48.726;9.248;2023-06-26T05:27:00;5.90;;;5.25;;
44130;SDS011;29792;48.726;9.248;2023-06-26T05:29:26;6.78;;;5.57;;
44130;SDS011;29792;48.726;9.248;2023-06-26T05:31:52;102.10;;;18.60;;
44130;SDS011;29792;48.726;9.248;2023-06-26T05:34:18;7.10;;;5.82;;
44130;SDS011;29792;48.726;9.248;2023-06-26T05:36:44;6.68;;;5.60;;
44130;SDS011;29792;48.726;9.248;2023-06-26T05:39:13;7.57;;;6.05;;
44130;SDS011;29792;48.726;9.248;2023-06-26T05:41:38;7.68;;;6.35;;
44130;SDS011;29792;48.726;9.248;2023-06-26T05:44:04;6.93;;;5.28;;
44130;SDS011;29792;48.726;9.248;2023-06-26T05:46:29;9.75;;;5.93;;
44130;SDS011;29792;48.726;9.248;2023-06-26T05:48:54;7.82;;;6.40;;
44130;SDS011;29792;48.726;9.248;2023-06-26T05:51:20;8.93;;;6.57;;
44130;SDS011;29792;48.726;9.248;2023-06-26T05:53:45;6.97;;;6.20;;
44130;SDS011;29792;48.726;9.248;2023-06-26T05:56:11;8.30;;;5.57;;
44130;SDS011;29792;48.726;9.248;2023-06-26T05:58:36;7.20;;;5.05;;
44130;SDS011;29792;48.726;9.248;2023-06-26T06:01:02;6.97;;;5.70;;
44130;SDS011;29792;48.726;9.248;2023-06-26T06:03:27;5.68;;;5.00;;
44130;SDS011;29792;48.726;9.248;2023-06-26T06:05:52;6.25;;;5.65;;
44130;SDS011;29792;48.726;9.248;2023-06-26T06:08:17;5.95;;;5.20;;
44130;SDS011;29792;48.726;9.248;2023-06-26T06:10:43;8.82;;;5.07;;
44130;SDS011;29792;48.726;9.248;2023-06-26T06:13:08;6.50;;;5.63;;
44130;SDS011;29792;48.726;9.248;2023-06-26T06:15:33;4.68;;;4.15;;
44130;SDS011;29792;48.726;9.248;2023-06-26T06:17:58;6.03;;;5.43;;
44130;SDS011;29792;48.726;9.248;2023-06-26T06:20:24;8.80;;;5.57;;
44130;SDS011;29792;48.726;9.248;2023-06-26T06:22:51;8.25;;;5.60;;
44130;SDS011;29792;48.726;9.248;2023-06-26T06:25:16;6.47;;;5.70;;
44130;SDS011;29792;48.726;9.248;2023-06-26T06:27:41;6.85;;;4.63;;
44130;SDS011;29792;48.726;9.248;2023-06-26T06:30:07;6.00;;;4.80;;
44130;SDS011;29792;48.726;9.248;2023-06-26T06:32:33;6.50;;;5.90;;
44130;SDS011;29792;48.726;9.248;2023-06-26T06:34:59;5.43;;;4.80;;
44130;SDS011;29792;48.726;9.248;2023-06-26T06:37:24;8.32;;;5.65;;
44130;SDS011;29792;48.726;9.248;2023-06-26T06:39:49;9.52;;;5.55;;
44130;SDS011;29792;48.726;9.248;2023-06-26T06:42:14;8.88;;;5.15;;
44130;SDS011;29792;48.726;9.248;2023-06-26T06:44:40;9.05;;;5.80;;
44130;SDS011;29792;48.726;9.248;2023-06-26T06:47:05;5.43;;;4.28;;
44130;SDS011;29792;48.726;9.248;2023-06-26T06:49:30;4.78;;;4.22;;
44130;SDS011;29792;48.726;9.248;2023-06-26T06:51:56;8.55;;;5.57;;
44130;SDS011;29792;48.726;9.248;2023-06-26T06:54:21;5.63;;;4.63;;
44130;SDS011;29792;48.726;9.248;2023-06-26T06:56:46;5.40;;;4.40;;
44130;SDS011;29792;48.726;9.248;2023-06-26T06:59:11;6.10;;;4.25;;
44130;SDS011;29792;48.726;9.248;2023-06-26T07:01:37;5.50;;;4.93;;
44130;SDS011;29792;48.726;9.248;2023-06-26T07:04:02;4.85;;;3.90;;
44130;SDS011;29792;48.726;9.248;2023-06-26T07:06:28;5.00;;;4.40;;
44130;SDS011;29792;48.726;9.248;2023-06-26T07:08:54;6.70;;;3.78;;
44130;SDS011;29792;48.726;9.248;2023-06-26T07:11:19;4.95;;;4.45;;
44130;SDS011;29792;48.726;9.248;2023-06-26T07:13:44;5.00;;;3.70;;
44130;SDS011;29792;48.726;9.248;2023-06-26T07:16:10;5.75;;;4.50;;
44130;SDS011;29792;48.726;9.248;2023-06-26T07:18:36;4.75;;;3.65;;
44130;SDS011;29792;48.726;9.248;2023-06-26T07:21:03;5.15;;;3.70;;
44130;SDS011;29792;48.726;9.248;2023-06-26T07:23:28;4.78;;;3.50;;
44130;SDS011;29792;48.726;9.248;2023-06-26T07:25:53;6.45;;;4.47;;
44130;SDS011;29792;48.726;9.248;2023-06-26T07:28:19;4.10;;;3.70;;
44130;SDS011;29792;48.726;9.248;2023-06-26T07:30:44;5.82;;;4.03;;
44130;SDS011;29792;48.726;9.248;2023-06-26T07:33:09;4.18;;;3.28;;
44130;SDS011;29792;48.726;9.248;2023-06-26T07:35:35;4.65;;;4.07;;
44130;SDS011;29792;48.726;9.248;2023-06-26T07:38:00;7.90;;;4.00;;
44130;SDS011;29792;48.726;9.248;2023-06-26T07:40:26;5.93;;;3.70;;
44130;SDS011;29792;48.726;9.248;2023-06-26T07:42:51;10.88;;;5.13;;
44130;SDS011;29792;48.726;9.248;2023-06-26T07:45:18;10.15;;;5.30;;
44130;SDS011;29792;48.726;9.248;2023-06-26T07:47:44;3.83;;;3.22;;
44130;SDS011;29792;48.726;9.248;2023-06-26T07:50:10;8.00;;;2.75;;
44130;SDS011;29792;48.726;9.248;2023-06-26T07:52:35;5.15;;;3.78;;
44130;SDS011;29792;48.726;9.248;2023-06-26T07:55:00;4.15;;;3.75;;
44130;SDS011;29792;48.726;9.248;2023-06-26T07:57:25;17.25;;;5.13;;
44130;SDS011;29792;48.726;9.248;2023-06-26T07:59:51;26.23;;;7.15;;
44130;SDS011;29792;48.726;9.248;2023-06-26T08:02:16;7.82;;;3.90;;
44130;SDS011;29792;48.726;9.248;2023-06-26T08:04:43;4.25;;;3.22;;
44130;SDS011;29792;48.726;9.248;2023-06-26T08:07:09;4.00;;;3.60;;
44130;SDS011;29792;48.726;9.248;2023-06-26T08:09:34;8.55;;;3.88;;
44130;SDS011;29792;48.726;9.248;2023-06-26T08:11:59;4.40;;;3.58;;
44130;SDS011;29792;48.726;9.248;2023-06-26T08:14:25;7.78;;;3.78;;
44130;SDS011;29792;48.726;9.248;2023-06-26T08:16:51;4.45;;;2.97;;
44130;SDS011;29792;48.726;9.248;2023-06-26T08:19:16;7.22;;;3.83;;
44130;SDS011;29792;48.726;9.248;2023-06-26T08:21:43;5.53;;;3.35;;
44130;SDS011;29792;48.726;9.248;2023-06-26T08:24:09;4.10;;;3.20;;
44130;SDS011;29792;48.726;9.248;2023-06-26T08:26:35;3.72;;;3.00;;
44130;SDS011;29792;48.726;9.248;2023-06-26T08:29:01;4.40;;;3.50;;
44130;SDS011;29792;48.726;9.248;2023-06-26T08:31:32;3.45;;;3.08;;
44130;SDS011;29792;48.726;9.248;2023-06-26T08:33:59;3.50;;;3.20;;
44130;SDS011;29792;48.726;9.248;2023-06-26T08:36:24;3.90;;;3.50;;
44130;SDS011;29792;48.726;9.248;2023-06-26T08:38:49;5.40;;;4.38;;
44130;SDS011;29792;48.726;9.248;2023-06-26T08:41:15;3.95;;;2.60;;
44130;SDS011;29792;48.726;9.248;2023-06-26T08:43:40;3.55;;;3.17;;
44130;SDS011;29792;48.726;9.248;2023-06-26T08:46:06;5.05;;;3.17;;
44130;SDS011;29792;48.726;9.248;2023-06-26T08:48:32;4.63;;;3.45;;
44130;SDS011;29792;48.726;9.248;2023-06-26T08:51:04;6.30;;;4.20;;
44130;SDS011;29792;48.726;9.248;2023-06-26T08:56:16;4.65;;;3.42;;
44130;SDS011;29792;48.726;9.248;2023-06-26T08:58:46;4.00;;;3.60;;
44130;SDS011;29792;48.726;9.248;2023-06-26T09:01:11;5.72;;;4.68;;
44130;SDS011;29792;48.726;9.248;2023-06-26T09:03:37;4.60;;;3.80;;
44130;SDS011;29792;48.726;9.248;2023-06-26T09:06:03;11.73;;;4.75;;
44130;SDS011;29792;48.726;9.248;2023-06-26T09:08:28;5.03;;;4.53;;
44130;SDS011;29792;48.726;9.248;2023-06-26T09:10:53;4.00;;;3.67;;
44130;SDS011;29792;48.726;9.248;2023-06-26T09:13:19;4.45;;;3.30;;
44130;SDS011;29792;48.726;9.248;2023-06-26T09:15:44;4.35;;;3.17;;
44130;SDS011;29792;48.726;9.248;2023-06-26T09:18:10;3.45;;;2.85;;
44130;SDS011;29792;48.726;9.248;2023-06-26T09:20:36;7.65;;;3.92;;
44130;SDS011;29792;48.726;9.248;2023-06-26T09:23:01;5.00;;;3.80;;
44130;SDS011;29792;48.726;9.248;2023-06-26T09:25:28;4.45;;;3.97;;
44130;SDS011;29792;48.726;9.248;2023-06-26T09:27:54;4.93;;;3.42;;
44130;SDS011;29792;48.726;9.248;2023-06-26T09:30:19;5.88;;;3.38;;
44130;SDS011;29792;48.726;9.248;2023-06-26T09:32:45;3.63;;;3.25;;
44130;SDS011;29792;48.726;9.248;2023-06-26T09:35:10;3.72;;;3.00;;
44130;SDS011;29792;48.726;9.248;2023-06-26T09:37:36;3.75;;;3.38;;
44130;SDS011;29792;48.726;9.248;2023-06-26T09:40:02;3.17;;;2.85;;
44130;SDS011;29792;48.726;9.248;2023-06-26T09:42:28;5.55;;;3.42;;
44130;SDS011;29792;48.726;9.248;2023-06-26T09:44:54;5.55;;;3.78;;
44130;SDS011;29792;48.726;9.248;2023-06-26T09:47:20;3.45;;;2.90;;
44130;SDS011;29792;48.726;9.248;2023-06-26T09:49:45;4.32;;;3.40;;
44130;SDS011;29792;48.726;9.248;2023-06-26T09:52:14;9.25;;;3.92;;
44130;SDS011;29792;48.726;9.248;2023-06-26T09:54:50;4.50;;;3.63;;
44130;SDS011;29792;48.726;9.248;2023-06-26T09:57:15;3.88;;;3.40;;
44130;SDS011;29792;48.726;9.248;2023-06-26T09:59:41;4.00;;;3.70;;
44130;SDS011;29792;48.726;9.248;2023-06-26T10:02:09;4.07;;;3.67;;
44130;SDS011;29792;48.726;9.248;2023-06-26T10:04:35;3.53;;;3.22;;
44130;SDS011;29792;48.726;9.248;2023-06-26T10:07:01;4.38;;;3.97;;
44130;SDS011;29792;48.726;9.248;2023-06-26T10:09:31;4.45;;;3.88;;
44130;SDS011;29792;48.726;9.248;2023-06-26T10:11:58;4.68;;;3.67;;
44130;SDS011;29792;48.726;9.248;2023-06-26T10:14:31;4.88;;;3.83;;
44130;SDS011;29792;48.726;9.248;2023-06-26T10:17:03;3.60;;;3.30;;
44130;SDS011;29792;48.726;9.248;2023-06-26T10:19:31;3.70;;;3.22;;
44130;SDS011;29792;48.726;9.248;2023-06-26T10:21:58;6.55;;;3.35;;
44130;SDS011;29792;48.726;9.248;2023-06-26T10:24:26;3.67;;;3.33;;
44130;SDS011;29792;48.726;9.248;2023-06-26T10:26:57;5.35;;;3.97;;
44130;SDS011;29792;48.726;9.248;2023-06-26T10:29:27;5.55;;;3.45;;
44130;SDS011;29792;48.726;9.248;2023-06-26T10:31:55;5.25;;;4.00;;
44130;SDS011;29792;48.726;9.248;2023-06-26T10:34:23;6.82;;;3.38;;
44130;SDS011;29792;48.726;9.248;2023-06-26T10:36:58;10.60;;;4.20;;
44130;SDS011;29792;48.726;9.248;2023-06-26T10:39:24;6.63;;;3.60;;
44130;SDS011;29792;48.726;9.248;2023-06-26T10:41:50;7.15;;;3.83;;
44130;SDS011;29792;48.726;9.248;2023-06-26T10:44:19;3.92;;;3.58;;
44130;SDS011;29792;48.726;9.248;2023-06-26T10:46:52;6.30;;;4.18;;
44130;SDS011;29792;48.726;9.248;2023-06-26T10:49:25;5.35;;;4.10;;
44130;SDS011;29792;48.726;9.248;2023-06-26T10:51:51;4.93;;;3.75;;
44130;SDS011;29792;48.726;9.248;2023-06-26T10:54:19;4.70;;;4.30;;
44130;SDS011;29792;48.726;9.248;2023-06-26T10:56:49;7.18;;;3.88;;
44130;SDS011;29792;48.726;9.248;2023-06-26T10:59:19;19.98;;;5.90;;
44130;SDS011;29792;48.726;9.248;2023-06-26T11:01:46;5.00;;;4.30;;
44130;SDS011;29792;48.726;9.248;2023-06-26T11:04:18;7.88;;;4.65;;
44130;SDS011;29792;48.726;9.248;2023-06-26T11:06:44;3.92;;;3.45;;
44130;SDS011;29792;48.726;9.248;2023-06-26T11:09:17;4.75;;;3.97;;
44130;SDS011;29792;48.726;9.248;2023-06-26T11:14:16;7.05;;;4.75;;
44130;SDS011;29792;48.726;9.248;2023-06-26T11:16:43;4.40;;;4.00;;
44130;SDS011;29792;48.726;9.248;2023-06-26T11:19:08;4.55;;;4.15;;
44130;SDS011;29792;48.726;9.248;2023-06-26T11:21:35;7.20;;;4.50;;
44130;SDS011;29792;48.726;9.248;2023-06-26T11:24:02;5.75;;;4.13;;
44130;SDS011;29792;48.726;9.248;2023-06-26T11:26:29;4.93;;;4.10;;
44130;SDS011;29792;48.726;9.248;2023-06-26T11:28:55;4.68;;;3.92;;
44130;SDS011;29792;48.726;9.248;2023-06-26T11:31:30;5.40;;;4.90;;
44130;SDS011;29792;48.726;9.248;2023-06-26T11:33:57;5.78;;;4.03;;
44130;SDS011;29792;48.726;9.248;2023-06-26T11:36:24;4.30;;;3.90;;
44130;SDS011;29792;48.726;9.248;2023-06-26T11:38:54;7.22;;;4.43;;
44130;SDS011;29792;48.726;9.248;2023-06-26T11:41:20;5.68;;;4.20;;
44130;SDS011;29792;48.726;9.248;2023-06-26T11:43:46;6.90;;;4.47;;
44130;SDS011;29792;48.726;9.248;2023-06-26T11:46:12;8.80;;;4.40;;
44130;SDS011;29792;48.726;9.248;2023-06-26T11:48:37;34.95;;;5.63;;
44130;SDS011;29792;48.726;9.248;2023-06-26T11:51:04;5.43;;;3.95;;
44130;SDS011;29792;48.726;9.248;2023-06-26T11:53:30;5.55;;;4.32;;
44130;SDS011;29792;48.726;9.248;2023-06-26T11:55:56;8.60;;;4.45;;
44130;SDS011;29792;48.726;9.248;2023-06-26T11:58:22;4.97;;;4.25;;
44130;SDS011;29792;48.726;9.248;2023-06-26T12:00:47;5.25;;;4.75;;
44130;SDS011;29792;48.726;9.248;2023-06-26T12:03:13;4.40;;;4.05;;
44130;SDS011;29792;48.726;9.248;2023-06-26T12:05:39;4.47;;;3.75;;
44130;SDS011;29792;48.726;9.248;2023-06-26T12:08:04;5.72;;;4.32;;
44130;SDS011;29792;48.726;9.248;2023-06-26T12:10:32;4.75;;;4.35;;
44130;SDS011;29792;48.726;9.248;2023-06-26T12:12:57;9.57;;;5.32;;
44130;SDS011;29792;48.726;9.248;2023-06-26T12:15:25;4.82;;;4.18;;
44130;SDS011;29792;48.726;9.248;2023-06-26T12:17:50;6.20;;;5.40;;
44130;SDS011;29792;48.726;9.248;2023-06-26T12:20:22;12.25;;;4.88;;
44130;SDS011;29792;48.726;9.248;2023-06-26T12:22:49;4.60;;;3.78;;
44130;SDS011;29792;48.726;9.248;2023-06-26T12:25:14;5.30;;;3.80;;
44130;SDS011;29792;48.726;9.248;2023-06-26T12:27:40;3.97;;;3.60;;
44130;SDS011;29792;48.726;9.248;2023-06-26T12:30:06;5.55;;;4.43;;
44130;SDS011;29792;48.726;9.248;2023-06-26T12:32:32;6.32;;;4.38;;
44130;SDS011;29792;48.726;9.248;2023-06-26T12:34:57;7.22;;;4.93;;
44130;SDS011;29792;48.726;9.248;2023-06-26T12:37:23;4.82;;;3.92;;
44130;SDS011;29792;48.726;9.248;2023-06-26T12:42:16;6.57;;;3.90;;
44130;SDS011;29792;48.726;9.248;2023-06-26T12:44:51;4.30;;;3.90;;
44130;SDS011;29792;48.726;9.248;2023-06-26T12:47:19;4.53;;;4.10;;
44130;SDS011;29792;48.726;9.248;2023-06-26T12:49:49;7.00;;;3.80;;
44130;SDS011;29792;48.726;9.248;2023-06-26T12:52:16;7.93;;;3.97;;
44130;SDS011;29792;48.726;9.248;2023-06-26T12:54:42;4.63;;;4.03;;
44130;SDS011;29792;48.726;9.248;2023-06-26T12:57:08;4.55;;;4.05;;
44130;SDS011;29792;48.726;9.248;2023-06-26T12:59:35;7.35;;;4.03;;
44130;SDS011;29792;48.726;9.248;2023-06-26T13:02:01;5.05;;;4.43;;
44130;SDS011;29792;48.726;9.248;2023-06-26T13:04:27;6.30;;;4.50;;
44130;SDS011;29792;48.726;9.248;2023-06-26T13:06:52;6.38;;;3.72;;
44130;SDS011;29792;48.726;9.248;2023-06-26T13:09:20;29.95;;;6.47;;
44130;SDS011;29792;48.726;9.248;2023-06-26T13:11:45;11.32;;;4.82;;
44130;SDS011;29792;48.726;9.248;2023-06-26T13:14:11;7.03;;;4.22;;
44130;SDS011;29792;48.726;9.248;2023-06-26T13:16:36;5.47;;;4.15;;
44130;SDS011;29792;48.726;9.248;2023-06-26T13:19:02;7.63;;;4.55;;
44130;SDS011;29792;48.726;9.248;2023-06-26T13:21:27;6.38;;;4.10;;
44130;SDS011;29792;48.726;9.248;2023-06-26T13:23:53;5.72;;;4.18;;
44130;SDS011;29792;48.726;9.248;2023-06-26T13:26:19;5.32;;;4.82;;
44130;SDS011;29792;48.726;9.248;2023-06-26T13:28:44;4.72;;;3.90;;
44130;SDS011;29792;48.726;9.248;2023-06-26T13:31:10;12.77;;;4.60;;
44130;SDS011;29792;48.726;9.248;2023-06-26T13:33:35;8.05;;;4.65;;
44130;SDS011;29792;48.726;9.248;2023-06-26T13:36:00;8.18;;;4.38;;
44130;SDS011;29792;48.726;9.248;2023-06-26T13:38:26;5.63;;;4.68;;
44130;SDS011;29792;48.726;9.248;2023-06-26T13:40:52;3.70;;;3.38;;
44130;SDS011;29792;48.726;9.248;2023-06-26T13:43:18;5.50;;;4.22;;
44130;SDS011;29792;48.726;9.248;2023-06-26T13:45:43;9.73;;;4.80;;
44130;SDS011;29792;48.726;9.248;2023-06-26T13:48:09;4.63;;;4.22;;
44130;SDS011;29792;48.726;9.248;2023-06-26T13:50:34;8.23;;;4.45;;
44130;SDS011;29792;48.726;9.248;2023-06-26T13:52:59;5.60;;;3.65;;
44130;SDS011;29792;48.726;9.248;2023-06-26T13:55:25;8.13;;;3.70;;
44130;SDS011;29792;48.726;9.248;2023-06-26T13:57:50;6.80;;;4.25;;
44130;SDS011;29792;48.726;9.248;2023-06-26T14:00:15;4.10;;;3.17;;
44130;SDS011;29792;48.726;9.248;2023-06-26T14:02:45;8.05;;;3.20;;
44130;SDS011;29792;48.726;9.248;2023-06-26T14:05:11;7.57;;;4.20;;
44130;SDS011;29792;48.726;9.248;2023-06-26T14:07:36;4.15;;;3.67;;
44130;SDS011;29792;48.726;9.248;2023-06-26T14:10:02;8.70;;;3.95;;
44130;SDS011;29792;48.726;9.248;2023-06-26T14:12:28;4.75;;;4.22;;
44130;SDS011;29792;48.726;9.248;2023-06-26T14:14:53;9.68;;;4.72;;
44130;SDS011;29792;48.726;9.248;2023-06-26T14:17:19;4.38;;;3.60;;
44130;SDS011;29792;48.726;9.248;2023-06-26T14:19:44;4.53;;;3.20;;
44130;SDS011;29792;48.726;9.248;2023-06-26T14:22:10;4.93;;;3.33;;
44130;SDS011;29792;48.726;9.248;2023-06-26T14:24:36;4.50;;;4.03;;
44130;SDS011;29792;48.726;9.248;2023-06-26T14:27:01;8.10;;;4.03;;
44130;SDS011;29792;48.726;9.248;2023-06-26T14:29:26;6.60;;;3.50;;
44130;SDS011;29792;48.726;9.248;2023-06-26T14:31:51;9.10;;;3.97;;
44130;SDS011;29792;48.726;9.248;2023-06-26T14:34:17;4.28;;;2.72;;
44130;SDS011;29792;48.726;9.248;2023-06-26T14:36:42;2.83;;;2.28;;
44130;SDS011;29792;48.726;9.248;2023-06-26T14:39:08;6.22;;;2.65;;
44130;SDS011;29792;48.726;9.248;2023-06-26T14:41:33;6.57;;;2.50;;
44130;SDS011;29792;48.726;9.248;2023-06-26T14:43:58;2.75;;;2.42;;
44130;SDS011;29792;48.726;9.248;2023-06-26T14:46:23;3.30;;;2.58;;
44130;SDS011;29792;48.726;9.248;2023-06-26T14:48:49;3.60;;;2.45;;
44130;SDS011;29792;48.726;9.248;2023-06-26T14:51:16;3.72;;;2.80;;